sensor_id;sensor_type;location;lat;lon;timestamp;P1;durP1;ratioP1;P2;durP2;ratioP2
4278;SDS011;2153;47.744;10.580;2022-11-20T00:00:31;10.77;;;1.57;;
4278;SDS011;2153;47.744;10.580;2022-11-20T00:02:58;12.93;;;2.23;;
4278;SDS011;2153;47.744;10.580;2022-11-20T00:05:26;11.13;;;1.80;;
4278;SDS011;2153;47.744;10.580;2022-11-20T00:07:53;11.43;;;2.00;;
4278;SDS011;2153;47.744;10.580;2022-11-20T00:10:20;12.23;;;2.10;;
4278;SDS011;2153;47.744;10.580;2022-11-20T00:12:46;10.63;;;1.87;;
4278;SDS011;2153;47.744;10.580;2022-11-20T00:15:13;10.70;;;2.00;;
4278;SDS011;2153;47.744;10.580;2022-11-20T00:17:40;10.97;;;1.97;;
4278;SDS011;2153;47.744;10.580;2022-11-20T00:20:07;11.50;;;2.13;;
4278;SDS011;2153;47.744;10.580;2022-11-20T00:22:36;11.70;;;2.40;;
4278;SDS011;2153;47.744;10.580;2022-11-20T00:25:03;10.40;;;1.83;;
4278;SDS011;2153;47.744;10.580;2022-11-20T00:27:30;12.57;;;2.17;;
4278;SDS011;2153;47.744;10.580;2022-11-20T00:29:57;11.10;;;2.10;;
4278;SDS011;2153;47.744;10.580;2022-11-20T00:32:24;11.57;;;1.90;;
4278;SDS011;2153;47.744;10.580;2022-11-20T00:34:50;12.83;;;2.33;;
4278;SDS011;2153;47.744;10.580;2022-11-20T00:37:17;11.87;;;2.03;;
4278;SDS011;2153;47.744;10.580;2022-11-20T00:39:45;12.40;;;2.50;;
4278;SDS011;2153;47.744;10.580;2022-11-20T00:42:12;12.73;;;3.30;;
4278;SDS011;2153;47.744;10.580;2022-11-20T00:44:39;12.20;;;2.23;;
4278;SDS011;2153;47.744;10.580;2022-11-20T00:47:06;12.37;;;2.30;;
4278;SDS011;2153;47.744;10.580;2022-11-20T00:49:32;14.80;;;2.80;;
4278;SDS011;2153;47.744;10.580;2022-11-20T00:51:59;14.80;;;3.30;;
4278;SDS011;2153;47.744;10.580;2022-11-20T00:54:26;13.77;;;2.83;;
4278;SDS011;2153;47.744;10.580;2022-11-20T00:56:54;17.10;;;3.37;;
4278;SDS011;2153;47.744;10.580;2022-11-20T00:59:21;13.33;;;3.50;;
4278;SDS011;2153;47.744;10.580;2022-11-20T01:01:48;16.03;;;4.30;;
4278;SDS011;2153;47.744;10.580;2022-11-20T01:04:14;14.30;;;4.00;;
4278;SDS011;2153;47.744;10.580;2022-11-20T01:06:41;17.53;;;4.17;;
4278;SDS011;2153;47.744;10.580;2022-11-20T01:09:10;15.20;;;5.10;;
4278;SDS011;2153;47.744;10.580;2022-11-20T01:11:39;15.13;;;5.20;;
4278;SDS011;2153;47.744;10.580;2022-11-20T01:14:10;13.90;;;3.90;;
4278;SDS011;2153;47.744;10.580;2022-11-20T01:16:39;16.40;;;4.97;;
4278;SDS011;2153;47.744;10.580;2022-11-20T01:19:09;13.60;;;4.67;;
4278;SDS011;2153;47.744;10.580;2022-11-20T01:21:39;16.43;;;5.03;;
4278;SDS011;2153;47.744;10.580;2022-11-20T01:24:08;18.50;;;4.70;;
4278;SDS011;2153;47.744;10.580;2022-11-20T01:26:37;18.97;;;5.33;;
4278;SDS011;2153;47.744;10.580;2022-11-20T01:29:08;15.53;;;4.57;;
4278;SDS011;2153;47.744;10.580;2022-11-20T01:31:39;15.40;;;4.67;;
4278;SDS011;2153;47.744;10.580;2022-11-20T01:34:07;14.17;;;4.10;;
4278;SDS011;2153;47.744;10.580;2022-11-20T01:36:36;16.60;;;4.77;;
4278;SDS011;2153;47.744;10.580;2022-11-20T01:39:04;19.97;;;5.00;;
4278;SDS011;2153;47.744;10.580;2022-11-20T01:41:33;14.00;;;4.27;;
4278;SDS011;2153;47.744;10.580;2022-11-20T01:44:20;15.10;;;4.50;;
4278;SDS011;2153;47.744;10.580;2022-11-20T01:46:51;17.10;;;5.03;;
4278;SDS011;2153;47.744;10.580;2022-11-20T01:49:23;14.20;;;4.90;;
4278;SDS011;2153;47.744;10.580;2022-11-20T01:51:54;16.20;;;4.90;;
4278;SDS011;2153;47.744;10.580;2022-11-20T01:54:25;14.30;;;4.60;;
4278;SDS011;2153;47.744;10.580;2022-11-20T01:56:57;13.17;;;4.10;;
4278;SDS011;2153;47.744;10.580;2022-11-20T01:59:27;14.63;;;4.97;;
4278;SDS011;2153;47.744;10.580;2022-11-20T02:01:55;14.93;;;4.90;;
4278;SDS011;2153;47.744;10.580;2022-11-20T02:04:22;19.20;;;4.90;;
4278;SDS011;2153;47.744;10.580;2022-11-20T02:06:51;19.43;;;4.73;;
4278;SDS011;2153;47.744;10.580;2022-11-20T02:09:25;14.53;;;4.90;;
4278;SDS011;2153;47.744;10.580;2022-11-20T02:11:52;13.70;;;4.20;;
4278;SDS011;2153;47.744;10.580;2022-11-20T02:14:19;14.50;;;5.20;;
4278;SDS011;2153;47.744;10.580;2022-11-20T02:16:48;15.43;;;5.40;;
4278;SDS011;2153;47.744;10.580;2022-11-20T02:19:18;13.90;;;4.60;;
4278;SDS011;2153;47.744;10.580;2022-11-20T02:21:50;16.73;;;6.10;;
4278;SDS011;2153;47.744;10.580;2022-11-20T02:24:25;13.93;;;5.10;;
4278;SDS011;2153;47.744;10.580;2022-11-20T02:26:53;18.03;;;5.30;;
4278;SDS011;2153;47.744;10.580;2022-11-20T02:29:24;13.70;;;4.60;;
4278;SDS011;2153;47.744;10.580;2022-11-20T02:31:53;24.67;;;5.30;;
4278;SDS011;2153;47.744;10.580;2022-11-20T02:34:22;16.53;;;5.10;;
4278;SDS011;2153;47.744;10.580;2022-11-20T02:36:48;14.27;;;4.30;;
4278;SDS011;2153;47.744;10.580;2022-11-20T02:39:16;14.87;;;5.10;;
4278;SDS011;2153;47.744;10.580;2022-11-20T02:41:45;14.70;;;5.20;;
4278;SDS011;2153;47.744;10.580;2022-11-20T02:44:12;14.00;;;4.90;;
4278;SDS011;2153;47.744;10.580;2022-11-20T02:46:39;15.93;;;5.30;;
4278;SDS011;2153;47.744;10.580;2022-11-20T02:49:06;15.10;;;5.00;;
4278;SDS011;2153;47.744;10.580;2022-11-20T02:51:32;17.83;;;5.60;;
4278;SDS011;2153;47.744;10.580;2022-11-20T02:53:59;16.20;;;5.40;;
4278;SDS011;2153;47.744;10.580;2022-11-20T02:56:26;17.23;;;5.73;;
4278;SDS011;2153;47.744;10.580;2022-11-20T02:58:54;19.63;;;5.10;;
4278;SDS011;2153;47.744;10.580;2022-11-20T03:01:21;15.30;;;5.33;;
4278;SDS011;2153;47.744;10.580;2022-11-20T03:03:48;25.07;;;5.30;;
4278;SDS011;2153;47.744;10.580;2022-11-20T03:06:15;16.07;;;4.90;;
4278;SDS011;2153;47.744;10.580;2022-11-20T03:08:42;19.10;;;6.43;;
4278;SDS011;2153;47.744;10.580;2022-11-20T03:11:09;20.50;;;5.03;;
4278;SDS011;2153;47.744;10.580;2022-11-20T03:13:37;18.07;;;6.10;;
4278;SDS011;2153;47.744;10.580;2022-11-20T03:16:09;24.97;;;5.33;;
4278;SDS011;2153;47.744;10.580;2022-11-20T03:18:37;16.70;;;5.20;;
4278;SDS011;2153;47.744;10.580;2022-11-20T03:21:04;14.57;;;5.20;;
4278;SDS011;2153;47.744;10.580;2022-11-20T03:23:31;14.43;;;5.53;;
4278;SDS011;2153;47.744;10.580;2022-11-20T03:26:09;15.63;;;5.80;;
4278;SDS011;2153;47.744;10.580;2022-11-20T03:28:37;14.93;;;5.03;;
4278;SDS011;2153;47.744;10.580;2022-11-20T03:31:05;18.20;;;4.97;;
4278;SDS011;2153;47.744;10.580;2022-11-20T03:33:37;15.07;;;5.13;;
4278;SDS011;2153;47.744;10.580;2022-11-20T03:36:06;21.07;;;5.80;;
4278;SDS011;2153;47.744;10.580;2022-11-20T03:38:34;16.70;;;5.03;;
4278;SDS011;2153;47.744;10.580;2022-11-20T03:41:01;17.63;;;5.90;;
4278;SDS011;2153;47.744;10.580;2022-11-20T03:43:30;15.23;;;5.63;;
4278;SDS011;2153;47.744;10.580;2022-11-20T03:45:57;16.10;;;6.20;;
4278;SDS011;2153;47.744;10.580;2022-11-20T03:48:26;17.70;;;6.00;;
4278;SDS011;2153;47.744;10.580;2022-11-20T03:50:53;15.57;;;5.03;;
4278;SDS011;2153;47.744;10.580;2022-11-20T03:53:32;19.07;;;5.33;;
4278;SDS011;2153;47.744;10.580;2022-11-20T03:55:59;16.40;;;5.73;;
4278;SDS011;2153;47.744;10.580;2022-11-20T03:58:26;14.57;;;5.80;;
4278;SDS011;2153;47.744;10.580;2022-11-20T04:00:52;15.60;;;5.73;;
4278;SDS011;2153;47.744;10.580;2022-11-20T04:03:19;15.33;;;6.17;;
4278;SDS011;2153;47.744;10.580;2022-11-20T04:05:47;17.33;;;5.87;;
4278;SDS011;2153;47.744;10.580;2022-11-20T04:08:14;15.10;;;5.30;;
4278;SDS011;2153;47.744;10.580;2022-11-20T04:10:41;16.13;;;5.43;;
4278;SDS011;2153;47.744;10.580;2022-11-20T04:13:07;18.03;;;4.80;;
4278;SDS011;2153;47.744;10.580;2022-11-20T04:15:34;19.67;;;5.43;;
4278;SDS011;2153;47.744;10.580;2022-11-20T04:18:01;15.37;;;4.67;;
4278;SDS011;2153;47.744;10.580;2022-11-20T04:20:28;15.80;;;4.90;;
4278;SDS011;2153;47.744;10.580;2022-11-20T04:22:56;14.47;;;5.13;;
4278;SDS011;2153;47.744;10.580;2022-11-20T04:25:23;15.43;;;5.50;;
4278;SDS011;2153;47.744;10.580;2022-11-20T04:27:50;13.17;;;4.30;;
4278;SDS011;2153;47.744;10.580;2022-11-20T04:30:17;15.60;;;4.93;;
4278;SDS011;2153;47.744;10.580;2022-11-20T04:32:43;14.30;;;4.93;;
4278;SDS011;2153;47.744;10.580;2022-11-20T04:35:10;15.00;;;4.03;;
4278;SDS011;2153;47.744;10.580;2022-11-20T04:37:37;16.10;;;5.07;;
4278;SDS011;2153;47.744;10.580;2022-11-20T04:40:06;19.67;;;5.00;;
4278;SDS011;2153;47.744;10.580;2022-11-20T04:42:33;13.80;;;4.97;;
4278;SDS011;2153;47.744;10.580;2022-11-20T04:44:59;16.20;;;4.70;;
4278;SDS011;2153;47.744;10.580;2022-11-20T04:47:26;15.47;;;4.73;;
4278;SDS011;2153;47.744;10.580;2022-11-20T04:49:53;14.40;;;4.47;;
4278;SDS011;2153;47.744;10.580;2022-11-20T04:52:20;14.27;;;4.70;;
4278;SDS011;2153;47.744;10.580;2022-11-20T04:54:47;14.10;;;4.23;;
4278;SDS011;2153;47.744;10.580;2022-11-20T04:57:15;14.30;;;4.70;;
4278;SDS011;2153;47.744;10.580;2022-11-20T04:59:42;20.10;;;5.00;;
4278;SDS011;2153;47.744;10.580;2022-11-20T05:02:09;14.13;;;4.77;;
4278;SDS011;2153;47.744;10.580;2022-11-20T05:04:36;14.60;;;4.50;;
4278;SDS011;2153;47.744;10.580;2022-11-20T05:07:03;14.57;;;4.67;;
4278;SDS011;2153;47.744;10.580;2022-11-20T05:09:30;14.40;;;4.80;;
4278;SDS011;2153;47.744;10.580;2022-11-20T05:11:57;16.10;;;4.80;;
4278;SDS011;2153;47.744;10.580;2022-11-20T05:14:25;13.27;;;4.40;;
4278;SDS011;2153;47.744;10.580;2022-11-20T05:16:52;15.37;;;4.20;;
4278;SDS011;2153;47.744;10.580;2022-11-20T05:19:19;14.63;;;4.90;;
4278;SDS011;2153;47.744;10.580;2022-11-20T05:21:45;14.33;;;4.23;;
4278;SDS011;2153;47.744;10.580;2022-11-20T05:24:12;13.90;;;4.13;;
4278;SDS011;2153;47.744;10.580;2022-11-20T05:26:39;16.70;;;4.23;;
4278;SDS011;2153;47.744;10.580;2022-11-20T05:29:06;13.40;;;4.10;;
4278;SDS011;2153;47.744;10.580;2022-11-20T05:31:34;15.30;;;4.40;;
4278;SDS011;2153;47.744;10.580;2022-11-20T05:34:02;13.43;;;4.57;;
4278;SDS011;2153;47.744;10.580;2022-11-20T05:36:29;13.30;;;3.83;;
4278;SDS011;2153;47.744;10.580;2022-11-20T05:38:56;13.83;;;4.37;;
4278;SDS011;2153;47.744;10.580;2022-11-20T05:41:23;14.53;;;4.00;;
4278;SDS011;2153;47.744;10.580;2022-11-20T05:43:51;13.63;;;3.93;;
4278;SDS011;2153;47.744;10.580;2022-11-20T05:46:18;14.90;;;4.30;;
4278;SDS011;2153;47.744;10.580;2022-11-20T05:48:47;13.97;;;4.50;;
4278;SDS011;2153;47.744;10.580;2022-11-20T05:51:15;14.23;;;4.10;;
4278;SDS011;2153;47.744;10.580;2022-11-20T05:53:43;13.10;;;4.43;;
4278;SDS011;2153;47.744;10.580;2022-11-20T05:56:10;15.63;;;4.73;;
4278;SDS011;2153;47.744;10.580;2022-11-20T05:58:39;13.93;;;4.60;;
4278;SDS011;2153;47.744;10.580;2022-11-20T06:01:07;14.07;;;4.60;;
4278;SDS011;2153;47.744;10.580;2022-11-20T06:03:35;13.67;;;5.00;;
4278;SDS011;2153;47.744;10.580;2022-11-20T06:06:04;15.37;;;4.73;;
4278;SDS011;2153;47.744;10.580;2022-11-20T06:08:32;15.07;;;5.30;;
4278;SDS011;2153;47.744;10.580;2022-11-20T06:11:02;15.80;;;6.03;;
4278;SDS011;2153;47.744;10.580;2022-11-20T06:13:30;15.70;;;4.90;;
4278;SDS011;2153;47.744;10.580;2022-11-20T06:15:57;15.60;;;5.67;;
4278;SDS011;2153;47.744;10.580;2022-11-20T06:18:25;15.50;;;6.10;;
4278;SDS011;2153;47.744;10.580;2022-11-20T06:20:58;15.27;;;5.10;;
4278;SDS011;2153;47.744;10.580;2022-11-20T06:23:28;14.00;;;5.00;;
4278;SDS011;2153;47.744;10.580;2022-11-20T06:25:56;15.77;;;4.93;;
4278;SDS011;2153;47.744;10.580;2022-11-20T06:28:23;17.43;;;5.40;;
4278;SDS011;2153;47.744;10.580;2022-11-20T06:30:50;15.37;;;5.27;;
4278;SDS011;2153;47.744;10.580;2022-11-20T06:33:17;17.90;;;5.17;;
4278;SDS011;2153;47.744;10.580;2022-11-20T06:35:43;17.60;;;5.20;;
4278;SDS011;2153;47.744;10.580;2022-11-20T06:38:10;13.70;;;4.60;;
4278;SDS011;2153;47.744;10.580;2022-11-20T06:40:40;15.70;;;5.13;;
4278;SDS011;2153;47.744;10.580;2022-11-20T06:43:07;22.67;;;9.13;;
4278;SDS011;2153;47.744;10.580;2022-11-20T06:45:35;16.40;;;6.03;;
4278;SDS011;2153;47.744;10.580;2022-11-20T06:48:02;16.80;;;5.97;;
4278;SDS011;2153;47.744;10.580;2022-11-20T06:50:29;14.37;;;4.63;;
4278;SDS011;2153;47.744;10.580;2022-11-20T06:52:56;16.30;;;5.30;;
4278;SDS011;2153;47.744;10.580;2022-11-20T06:55:26;15.70;;;4.87;;
4278;SDS011;2153;47.744;10.580;2022-11-20T06:57:54;16.23;;;4.40;;
4278;SDS011;2153;47.744;10.580;2022-11-20T07:00:20;16.13;;;4.30;;
4278;SDS011;2153;47.744;10.580;2022-11-20T07:02:47;18.63;;;4.23;;
4278;SDS011;2153;47.744;10.580;2022-11-20T07:05:14;14.70;;;4.93;;
4278;SDS011;2153;47.744;10.580;2022-11-20T07:07:41;17.10;;;4.17;;
4278;SDS011;2153;47.744;10.580;2022-11-20T07:10:09;14.33;;;4.10;;
4278;SDS011;2153;47.744;10.580;2022-11-20T07:12:36;14.00;;;4.20;;
4278;SDS011;2153;47.744;10.580;2022-11-20T07:15:05;13.53;;;3.67;;
4278;SDS011;2153;47.744;10.580;2022-11-20T07:17:32;13.20;;;4.00;;
4278;SDS011;2153;47.744;10.580;2022-11-20T07:19:59;15.50;;;4.70;;
4278;SDS011;2153;47.744;10.580;2022-11-20T07:22:26;14.97;;;4.70;;
4278;SDS011;2153;47.744;10.580;2022-11-20T07:24:53;16.33;;;4.60;;
4278;SDS011;2153;47.744;10.580;2022-11-20T07:27:19;15.77;;;4.70;;
4278;SDS011;2153;47.744;10.580;2022-11-20T07:29:46;15.43;;;4.30;;
4278;SDS011;2153;47.744;10.580;2022-11-20T07:32:14;12.73;;;3.13;;
4278;SDS011;2153;47.744;10.580;2022-11-20T07:34:41;15.40;;;3.83;;
4278;SDS011;2153;47.744;10.580;2022-11-20T07:37:08;13.40;;;3.80;;
4278;SDS011;2153;47.744;10.580;2022-11-20T07:39:35;14.67;;;3.97;;
4278;SDS011;2153;47.744;10.580;2022-11-20T07:42:02;14.07;;;3.70;;
4278;SDS011;2153;47.744;10.580;2022-11-20T07:44:28;12.20;;;3.13;;
4278;SDS011;2153;47.744;10.580;2022-11-20T07:46:55;11.77;;;2.70;;
4278;SDS011;2153;47.744;10.580;2022-11-20T07:49:23;12.73;;;3.30;;
4278;SDS011;2153;47.744;10.580;2022-11-20T07:51:50;13.20;;;2.93;;
4278;SDS011;2153;47.744;10.580;2022-11-20T07:54:18;14.60;;;4.03;;
4278;SDS011;2153;47.744;10.580;2022-11-20T07:56:45;15.07;;;3.13;;
4278;SDS011;2153;47.744;10.580;2022-11-20T07:59:12;12.70;;;3.13;;
4278;SDS011;2153;47.744;10.580;2022-11-20T08:01:40;14.17;;;4.30;;
4278;SDS011;2153;47.744;10.580;2022-11-20T08:04:07;14.63;;;3.33;;
4278;SDS011;2153;47.744;10.580;2022-11-20T08:06:36;16.20;;;4.33;;
4278;SDS011;2153;47.744;10.580;2022-11-20T08:09:03;17.63;;;4.20;;
4278;SDS011;2153;47.744;10.580;2022-11-20T08:11:30;14.03;;;3.80;;
4278;SDS011;2153;47.744;10.580;2022-11-20T08:14:14;15.10;;;3.47;;
4278;SDS011;2153;47.744;10.580;2022-11-20T08:16:41;13.83;;;3.77;;
4278;SDS011;2153;47.744;10.580;2022-11-20T08:19:09;18.97;;;4.30;;
4278;SDS011;2153;47.744;10.580;2022-11-20T08:21:37;13.17;;;3.23;;
4278;SDS011;2153;47.744;10.580;2022-11-20T08:24:05;17.30;;;3.40;;
4278;SDS011;2153;47.744;10.580;2022-11-20T08:26:33;14.93;;;3.10;;
4278;SDS011;2153;47.744;10.580;2022-11-20T08:29:00;13.10;;;3.07;;
4278;SDS011;2153;47.744;10.580;2022-11-20T08:31:27;12.03;;;2.57;;
4278;SDS011;2153;47.744;10.580;2022-11-20T08:33:54;11.47;;;2.57;;
4278;SDS011;2153;47.744;10.580;2022-11-20T08:36:21;14.47;;;3.47;;
4278;SDS011;2153;47.744;10.580;2022-11-20T08:38:50;12.20;;;3.03;;
4278;SDS011;2153;47.744;10.580;2022-11-20T08:41:18;13.13;;;3.17;;
4278;SDS011;2153;47.744;10.580;2022-11-20T08:43:53;13.00;;;2.80;;
4278;SDS011;2153;47.744;10.580;2022-11-20T08:46:22;12.07;;;3.00;;
4278;SDS011;2153;47.744;10.580;2022-11-20T08:48:49;13.40;;;3.23;;
4278;SDS011;2153;47.744;10.580;2022-11-20T08:51:16;15.30;;;3.10;;
4278;SDS011;2153;47.744;10.580;2022-11-20T08:53:44;12.20;;;2.70;;
4278;SDS011;2153;47.744;10.580;2022-11-20T08:56:12;11.73;;;2.50;;
4278;SDS011;2153;47.744;10.580;2022-11-20T08:58:39;11.50;;;2.10;;
4278;SDS011;2153;47.744;10.580;2022-11-20T09:01:06;11.03;;;2.00;;
4278;SDS011;2153;47.744;10.580;2022-11-20T09:03:33;11.87;;;2.17;;
4278;SDS011;2153;47.744;10.580;2022-11-20T09:06:00;12.13;;;2.40;;
4278;SDS011;2153;47.744;10.580;2022-11-20T09:08:28;11.03;;;2.00;;
4278;SDS011;2153;47.744;10.580;2022-11-20T09:10:56;11.90;;;2.23;;
4278;SDS011;2153;47.744;10.580;2022-11-20T09:13:25;11.17;;;1.93;;
4278;SDS011;2153;47.744;10.580;2022-11-20T09:15:54;11.80;;;1.97;;
4278;SDS011;2153;47.744;10.580;2022-11-20T09:18:21;11.40;;;2.47;;
4278;SDS011;2153;47.744;10.580;2022-11-20T09:20:48;11.10;;;1.90;;
4278;SDS011;2153;47.744;10.580;2022-11-20T09:23:15;13.30;;;2.27;;
4278;SDS011;2153;47.744;10.580;2022-11-20T09:25:42;13.03;;;2.50;;
4278;SDS011;2153;47.744;10.580;2022-11-20T09:28:09;13.87;;;2.37;;
4278;SDS011;2153;47.744;10.580;2022-11-20T09:30:37;12.90;;;2.30;;
4278;SDS011;2153;47.744;10.580;2022-11-20T09:33:04;12.17;;;2.07;;
4278;SDS011;2153;47.744;10.580;2022-11-20T09:35:32;12.47;;;1.80;;
4278;SDS011;2153;47.744;10.580;2022-11-20T09:38:03;12.20;;;1.90;;
4278;SDS011;2153;47.744;10.580;2022-11-20T09:40:30;13.60;;;2.50;;
4278;SDS011;2153;47.744;10.580;2022-11-20T09:42:59;12.50;;;2.10;;
4278;SDS011;2153;47.744;10.580;2022-11-20T09:45:35;12.73;;;1.73;;
4278;SDS011;2153;47.744;10.580;2022-11-20T09:48:18;12.37;;;1.90;;
4278;SDS011;2153;47.744;10.580;2022-11-20T09:50:54;11.90;;;1.40;;
4278;SDS011;2153;47.744;10.580;2022-11-20T09:53:25;12.13;;;1.53;;
4278;SDS011;2153;47.744;10.580;2022-11-20T09:56:00;11.37;;;1.60;;
4278;SDS011;2153;47.744;10.580;2022-11-20T09:58:29;12.13;;;1.80;;
4278;SDS011;2153;47.744;10.580;2022-11-20T10:01:03;13.93;;;1.90;;
4278;SDS011;2153;47.744;10.580;2022-11-20T10:03:37;12.90;;;1.73;;
4278;SDS011;2153;47.744;10.580;2022-11-20T10:06:12;11.60;;;1.60;;
4278;SDS011;2153;47.744;10.580;2022-11-20T10:08:44;12.63;;;1.47;;
4278;SDS011;2153;47.744;10.580;2022-11-20T10:11:17;12.47;;;1.73;;
4278;SDS011;2153;47.744;10.580;2022-11-20T10:13:49;11.20;;;1.50;;
4278;SDS011;2153;47.744;10.580;2022-11-20T10:16:28;11.93;;;1.53;;
4278;SDS011;2153;47.744;10.580;2022-11-20T10:19:06;11.13;;;1.40;;
4278;SDS011;2153;47.744;10.580;2022-11-20T10:21:45;12.37;;;1.50;;
4278;SDS011;2153;47.744;10.580;2022-11-20T10:30:22;12.00;;;1.70;;
4278;SDS011;2153;47.744;10.580;2022-11-20T10:32:52;12.00;;;1.60;;
4278;SDS011;2153;47.744;10.580;2022-11-20T10:35:23;11.20;;;1.50;;
4278;SDS011;2153;47.744;10.580;2022-11-20T10:37:54;11.00;;;1.53;;
4278;SDS011;2153;47.744;10.580;2022-11-20T10:40:27;10.97;;;1.47;;
4278;SDS011;2153;47.744;10.580;2022-11-20T10:42:59;11.03;;;1.37;;
4278;SDS011;2153;47.744;10.580;2022-11-20T10:45:31;11.10;;;1.20;;
4278;SDS011;2153;47.744;10.580;2022-11-20T10:50:56;12.43;;;1.70;;
4278;SDS011;2153;47.744;10.580;2022-11-20T10:53:44;11.47;;;1.23;;
4278;SDS011;2153;47.744;10.580;2022-11-20T10:56:21;21.07;;;4.20;;
4278;SDS011;2153;47.744;10.580;2022-11-20T10:59:02;15.17;;;2.57;;
4278;SDS011;2153;47.744;10.580;2022-11-20T11:01:40;12.43;;;2.40;;
4278;SDS011;2153;47.744;10.580;2022-11-20T11:04:14;14.10;;;1.83;;
4278;SDS011;2153;47.744;10.580;2022-11-20T11:06:57;14.07;;;2.10;;
4278;SDS011;2153;47.744;10.580;2022-11-20T11:09:32;15.33;;;1.80;;
4278;SDS011;2153;47.744;10.580;2022-11-20T11:12:05;11.47;;;1.50;;
4278;SDS011;2153;47.744;10.580;2022-11-20T11:14:41;12.57;;;1.80;;
4278;SDS011;2153;47.744;10.580;2022-11-20T11:17:17;10.73;;;1.40;;
4278;SDS011;2153;47.744;10.580;2022-11-20T11:20:06;11.20;;;1.67;;
4278;SDS011;2153;47.744;10.580;2022-11-20T11:22:43;12.20;;;1.70;;
4278;SDS011;2153;47.744;10.580;2022-11-20T11:25:18;13.37;;;1.83;;
4278;SDS011;2153;47.744;10.580;2022-11-20T11:27:53;11.30;;;1.20;;
4278;SDS011;2153;47.744;10.580;2022-11-20T11:30:22;11.70;;;1.47;;
4278;SDS011;2153;47.744;10.580;2022-11-20T11:32:50;12.03;;;1.40;;
4278;SDS011;2153;47.744;10.580;2022-11-20T11:35:30;11.20;;;1.20;;
4278;SDS011;2153;47.744;10.580;2022-11-20T11:38:02;12.70;;;1.60;;
4278;SDS011;2153;47.744;10.580;2022-11-20T11:40:31;11.40;;;1.40;;
4278;SDS011;2153;47.744;10.580;2022-11-20T11:43:00;11.07;;;1.20;;
4278;SDS011;2153;47.744;10.580;2022-11-20T11:45:29;11.20;;;1.23;;
4278;SDS011;2153;47.744;10.580;2022-11-20T11:47:56;15.40;;;1.80;;
4278;SDS011;2153;47.744;10.580;2022-11-20T11:50:25;10.83;;;1.20;;
4278;SDS011;2153;47.744;10.580;2022-11-20T11:52:58;11.20;;;1.47;;
4278;SDS011;2153;47.744;10.580;2022-11-20T11:55:35;11.10;;;1.40;;
4278;SDS011;2153;47.744;10.580;2022-11-20T11:58:14;13.57;;;1.57;;
4278;SDS011;2153;47.744;10.580;2022-11-20T12:00:48;11.73;;;1.53;;
4278;SDS011;2153;47.744;10.580;2022-11-20T12:03:21;11.30;;;1.60;;
4278;SDS011;2153;47.744;10.580;2022-11-20T12:05:55;11.57;;;1.70;;
4278;SDS011;2153;47.744;10.580;2022-11-20T12:08:27;14.13;;;1.97;;
4278;SDS011;2153;47.744;10.580;2022-11-20T12:10:59;12.60;;;1.97;;
4278;SDS011;2153;47.744;10.580;2022-11-20T12:13:34;11.87;;;1.40;;
4278;SDS011;2153;47.744;10.580;2022-11-20T12:16:07;11.70;;;1.60;;
4278;SDS011;2153;47.744;10.580;2022-11-20T12:18:38;15.50;;;2.37;;
4278;SDS011;2153;47.744;10.580;2022-11-20T12:21:08;11.93;;;1.57;;
4278;SDS011;2153;47.744;10.580;2022-11-20T12:23:47;13.60;;;1.90;;
4278;SDS011;2153;47.744;10.580;2022-11-20T12:26:27;13.30;;;1.57;;
4278;SDS011;2153;47.744;10.580;2022-11-20T12:29:07;10.93;;;1.47;;
4278;SDS011;2153;47.744;10.580;2022-11-20T12:31:45;11.00;;;1.20;;
4278;SDS011;2153;47.744;10.580;2022-11-20T12:34:37;11.57;;;1.70;;
4278;SDS011;2153;47.744;10.580;2022-11-20T12:37:16;12.17;;;1.20;;
4278;SDS011;2153;47.744;10.580;2022-11-20T12:39:57;13.10;;;1.60;;
4278;SDS011;2153;47.744;10.580;2022-11-20T12:42:42;11.33;;;1.60;;
4278;SDS011;2153;47.744;10.580;2022-11-20T12:48:36;11.07;;;1.30;;
4278;SDS011;2153;47.744;10.580;2022-11-20T12:51:26;13.57;;;1.67;;
4278;SDS011;2153;47.744;10.580;2022-11-20T12:54:11;11.70;;;1.57;;
4278;SDS011;2153;47.744;10.580;2022-11-20T12:57:13;10.77;;;1.30;;
4278;SDS011;2153;47.744;10.580;2022-11-20T12:59:57;11.53;;;1.80;;
4278;SDS011;2153;47.744;10.580;2022-11-20T13:02:38;11.30;;;1.53;;
4278;SDS011;2153;47.744;10.580;2022-11-20T13:05:31;12.00;;;1.70;;
4278;SDS011;2153;47.744;10.580;2022-11-20T13:08:04;10.93;;;1.27;;
4278;SDS011;2153;47.744;10.580;2022-11-20T13:10:42;11.90;;;1.80;;
4278;SDS011;2153;47.744;10.580;2022-11-20T13:13:16;11.17;;;1.43;;
4278;SDS011;2153;47.744;10.580;2022-11-20T13:15:50;11.70;;;1.43;;
4278;SDS011;2153;47.744;10.580;2022-11-20T13:18:22;11.50;;;1.77;;
4278;SDS011;2153;47.744;10.580;2022-11-20T13:20:49;10.97;;;1.40;;
4278;SDS011;2153;47.744;10.580;2022-11-20T13:23:23;14.30;;;2.40;;
4278;SDS011;2153;47.744;10.580;2022-11-20T13:25:51;12.33;;;1.70;;
4278;SDS011;2153;47.744;10.580;2022-11-20T13:28:31;11.50;;;1.90;;
4278;SDS011;2153;47.744;10.580;2022-11-20T13:30:58;14.73;;;3.80;;
4278;SDS011;2153;47.744;10.580;2022-11-20T13:33:29;11.60;;;2.10;;
4278;SDS011;2153;47.744;10.580;2022-11-20T13:35:58;12.23;;;2.17;;
4278;SDS011;2153;47.744;10.580;2022-11-20T13:38:26;10.70;;;1.60;;
4278;SDS011;2153;47.744;10.580;2022-11-20T13:40:54;11.53;;;2.13;;
4278;SDS011;2153;47.744;10.580;2022-11-20T13:43:26;13.30;;;2.00;;
4278;SDS011;2153;47.744;10.580;2022-11-20T13:46:02;11.40;;;1.77;;
4278;SDS011;2153;47.744;10.580;2022-11-20T13:48:31;11.90;;;2.00;;
4278;SDS011;2153;47.744;10.580;2022-11-20T13:51:08;11.87;;;2.27;;
4278;SDS011;2153;47.744;10.580;2022-11-20T13:53:48;11.00;;;1.93;;
4278;SDS011;2153;47.744;10.580;2022-11-20T13:56:35;11.67;;;1.60;;
4278;SDS011;2153;47.744;10.580;2022-11-20T13:59:15;12.83;;;1.80;;
4278;SDS011;2153;47.744;10.580;2022-11-20T14:01:54;10.97;;;1.70;;
4278;SDS011;2153;47.744;10.580;2022-11-20T14:04:23;11.00;;;1.73;;
4278;SDS011;2153;47.744;10.580;2022-11-20T14:06:54;10.97;;;1.50;;
4278;SDS011;2153;47.744;10.580;2022-11-20T14:09:25;10.30;;;1.33;;
4278;SDS011;2153;47.744;10.580;2022-11-20T14:11:53;11.30;;;1.90;;
4278;SDS011;2153;47.744;10.580;2022-11-20T14:14:21;10.67;;;1.67;;
4278;SDS011;2153;47.744;10.580;2022-11-20T14:16:49;12.07;;;1.87;;
4278;SDS011;2153;47.744;10.580;2022-11-20T14:19:26;11.27;;;1.60;;
4278;SDS011;2153;47.744;10.580;2022-11-20T14:22:06;12.30;;;2.00;;
4278;SDS011;2153;47.744;10.580;2022-11-20T14:24:35;10.57;;;1.40;;
4278;SDS011;2153;47.744;10.580;2022-11-20T14:27:02;12.07;;;1.50;;
4278;SDS011;2153;47.744;10.580;2022-11-20T14:29:29;11.23;;;1.77;;
4278;SDS011;2153;47.744;10.580;2022-11-20T14:32:00;12.83;;;2.07;;
4278;SDS011;2153;47.744;10.580;2022-11-20T14:34:30;12.17;;;1.60;;
4278;SDS011;2153;47.744;10.580;2022-11-20T14:37:00;11.70;;;1.90;;
4278;SDS011;2153;47.744;10.580;2022-11-20T14:39:30;10.57;;;1.40;;
4278;SDS011;2153;47.744;10.580;2022-11-20T14:41:58;11.90;;;2.07;;
4278;SDS011;2153;47.744;10.580;2022-11-20T14:44:26;12.07;;;2.17;;
4278;SDS011;2153;47.744;10.580;2022-11-20T14:46:55;10.70;;;1.33;;
4278;SDS011;2153;47.744;10.580;2022-11-20T14:49:22;10.93;;;1.53;;
4278;SDS011;2153;47.744;10.580;2022-11-20T14:51:59;11.10;;;1.90;;
4278;SDS011;2153;47.744;10.580;2022-11-20T14:54:27;10.63;;;1.33;;
4278;SDS011;2153;47.744;10.580;2022-11-20T14:56:55;12.50;;;1.83;;
4278;SDS011;2153;47.744;10.580;2022-11-20T14:59:23;10.60;;;1.70;;
4278;SDS011;2153;47.744;10.580;2022-11-20T15:01:54;10.80;;;1.53;;
4278;SDS011;2153;47.744;10.580;2022-11-20T15:04:22;10.90;;;1.80;;
4278;SDS011;2153;47.744;10.580;2022-11-20T15:06:49;11.60;;;1.60;;
4278;SDS011;2153;47.744;10.580;2022-11-20T15:09:18;13.47;;;1.80;;
4278;SDS011;2153;47.744;10.580;2022-11-20T15:11:51;11.63;;;1.83;;
4278;SDS011;2153;47.744;10.580;2022-11-20T15:14:20;10.67;;;1.60;;
4278;SDS011;2153;47.744;10.580;2022-11-20T15:16:47;10.90;;;1.60;;